createdAt,value
2022-10-05T00:01:31.048Z,10.60
2022-10-05T00:04:10.754Z,10.70
2022-10-05T00:06:38.978Z,10.80
2022-10-05T00:09:16.431Z,10.70
2022-10-05T00:11:46.854Z,10.80
2022-10-05T00:14:21.270Z,10.90
2022-10-05T00:16:50.009Z,10.80
2022-10-05T00:19:33.132Z,10.90
2022-10-05T00:22:04.204Z,10.80
2022-10-05T00:24:33.556Z,10.90
2022-10-05T00:27:02.124Z,10.90
2022-10-05T00:29:30.116Z,10.80
2022-10-05T00:31:58.196Z,10.70
2022-10-05T00:34:26.222Z,10.70
2022-10-05T00:36:54.173Z,10.50
2022-10-05T00:39:22.294Z,10.40
2022-10-05T00:42:13.238Z,10.50
2022-10-05T00:44:47.293Z,10.50
2022-10-05T00:47:37.835Z,10.50
2022-10-05T00:50:50.069Z,10.50
2022-10-05T00:53:35.086Z,10.60
2022-10-05T00:56:09.146Z,10.60
2022-10-05T00:58:55.190Z,10.50
2022-10-05T01:01:28.724Z,10.50
2022-10-05T01:04:13.752Z,10.30
2022-10-05T01:06:53.550Z,10.30
2022-10-05T01:09:34.960Z,10.40
2022-10-05T01:12:09.962Z,10.40
2022-10-05T01:14:53.347Z,10.50
2022-10-05T01:17:27.846Z,10.60
2022-10-05T01:20:25.591Z,10.60
2022-10-05T01:23:48.658Z,10.50
2022-10-05T01:26:49.417Z,10.50
2022-10-05T01:29:24.055Z,10.50
2022-10-05T01:32:03.194Z,10.40
2022-10-05T01:34:39.187Z,10.40
2022-10-05T01:37:14.520Z,10.30
2022-10-05T01:39:51.115Z,10.30
2022-10-05T01:42:29.517Z,10.20
2022-10-05T01:45:10.591Z,10.20
2022-10-05T01:47:44.969Z,10.10
2022-10-05T01:50:25.099Z,10.00
2022-10-05T01:53:06.523Z,9.90
2022-10-05T01:55:43.902Z,9.80
2022-10-05T01:58:22.921Z,9.90
2022-10-05T02:01:02.760Z,9.80
2022-10-05T02:03:40.250Z,9.80
2022-10-05T02:06:14.472Z,9.80
2022-10-05T02:08:49.114Z,9.80
2022-10-05T02:11:17.328Z,9.70
2022-10-05T02:13:52.317Z,9.90
2022-10-05T02:16:28.411Z,9.90
2022-10-05T02:19:04.648Z,9.90
2022-10-05T02:21:36.711Z,9.90
2022-10-05T02:24:12.658Z,9.80
2022-10-05T02:26:43.432Z,9.80
2022-10-05T02:29:17.656Z,9.80
2022-10-05T02:31:57.841Z,9.70
2022-10-05T02:34:30.351Z,9.70
2022-10-05T02:37:16.480Z,9.60
2022-10-05T02:39:58.657Z,9.60
2022-10-05T02:42:33.013Z,9.40
2022-10-05T02:45:15.191Z,9.30
2022-10-05T02:47:54.572Z,9.20
2022-10-05T02:50:32.709Z,9.40
2022-10-05T02:53:16.047Z,9.30
2022-10-05T02:55:56.440Z,9.40
2022-10-05T02:58:29.520Z,9.40
2022-10-05T03:01:05.283Z,9.40
2022-10-05T03:03:40.538Z,9.40
2022-10-05T03:06:18.356Z,9.40
2022-10-05T03:08:54.761Z,9.50
2022-10-05T03:11:33.057Z,9.40
2022-10-05T03:14:09.827Z,9.60
2022-10-05T03:16:50.171Z,9.80
2022-10-05T03:19:41.636Z,10.00
2022-10-05T03:22:18.812Z,9.90
2022-10-05T03:25:06.111Z,9.90
2022-10-05T03:27:43.981Z,10.10
2022-10-05T03:30:18.086Z,10.10
2022-10-05T03:33:01.240Z,10.20
2022-10-05T03:35:35.827Z,10.30
2022-10-05T03:38:14.083Z,10.40
2022-10-05T03:40:50.486Z,10.40
2022-10-05T03:43:53.697Z,10.30
2022-10-05T03:46:33.775Z,10.20
2022-10-05T03:49:12.435Z,10.50
2022-10-05T03:51:46.740Z,10.50
2022-10-05T03:54:22.565Z,10.60
2022-10-05T03:56:55.642Z,10.50
2022-10-05T03:59:32.857Z,10.50
2022-10-05T04:02:12.322Z,10.40
2022-10-05T04:04:48.411Z,10.20
2022-10-05T04:07:35.045Z,10.20
2022-10-05T04:10:08.153Z,10.30
2022-10-05T04:12:41.268Z,10.30
2022-10-05T04:15:20.587Z,10.10
2022-10-05T04:17:53.365Z,10.10
2022-10-05T04:20:26.696Z,10.20
2022-10-05T04:23:03.865Z,10.20
2022-10-05T04:25:38.080Z,10.20
2022-10-05T04:28:14.476Z,10.20
2022-10-05T04:30:47.543Z,10.30
2022-10-05T04:33:16.076Z,10.40
2022-10-05T04:36:14.202Z,10.40
2022-10-05T04:38:55.445Z,10.40
2022-10-05T04:41:42.580Z,10.50
2022-10-05T04:44:28.787Z,10.60
2022-10-05T04:47:15.599Z,10.50
2022-10-05T04:50:07.646Z,10.80
2022-10-05T04:52:44.938Z,10.90
2022-10-05T04:55:32.218Z,11.10
2022-10-05T04:58:10.170Z,11.10
2022-10-05T05:00:52.377Z,11.20
2022-10-05T05:03:56.848Z,11.30
2022-10-05T05:06:34.289Z,11.40
2022-10-05T05:09:32.515Z,11.40
2022-10-05T05:12:18.355Z,11.50
2022-10-05T05:15:06.101Z,11.60
2022-10-05T05:17:51.392Z,11.50
2022-10-05T05:20:24.126Z,11.40
2022-10-05T05:23:00.405Z,11.10
2022-10-05T05:25:38.943Z,10.80
2022-10-05T05:28:21.506Z,10.80
2022-10-05T05:31:01.791Z,10.70
2022-10-05T05:33:39.610Z,10.80
2022-10-05T05:36:46.568Z,11.00
2022-10-05T05:39:27.533Z,11.10
2022-10-05T05:42:02.893Z,11.30
2022-10-05T05:44:38.920Z,11.20
2022-10-05T05:47:19.840Z,11.20
2022-10-05T05:50:14.438Z,11.30
2022-10-05T05:52:47.439Z,11.20
2022-10-05T05:55:25.385Z,11.40
2022-10-05T05:58:03.343Z,11.10
2022-10-05T06:00:39.867Z,11.00
2022-10-05T06:03:17.664Z,11.10
2022-10-05T06:05:49.825Z,11.10
2022-10-05T06:08:24.932Z,11.20
2022-10-05T06:10:57.452Z,11.40
2022-10-05T06:13:33.302Z,11.50
2022-10-05T06:16:14.822Z,11.50
2022-10-05T06:18:48.665Z,11.50
2022-10-05T06:21:22.873Z,11.60
2022-10-05T06:24:02.658Z,11.30
2022-10-05T06:27:26.342Z,11.20
2022-10-05T06:30:08.368Z,11.00
2022-10-05T06:32:58.756Z,11.10
2022-10-05T06:35:45.555Z,11.20
2022-10-05T06:38:35.893Z,11.20
2022-10-05T06:41:15.777Z,11.20
2022-10-05T06:43:59.293Z,11.40
2022-10-05T06:46:33.324Z,11.40
2022-10-05T06:49:20.698Z,11.40
2022-10-05T06:51:57.191Z,11.40
2022-10-05T06:54:44.372Z,11.40
2022-10-05T06:57:32.216Z,11.60
2022-10-05T07:00:07.405Z,11.70
2022-10-05T07:02:45.421Z,11.50
2022-10-05T07:05:44.179Z,11.40
2022-10-05T07:08:15.819Z,11.40
2022-10-05T07:10:54.949Z,11.40
2022-10-05T07:14:01.102Z,11.50
2022-10-05T07:16:47.270Z,11.50
2022-10-05T07:19:33.312Z,11.50
2022-10-05T07:22:41.216Z,11.70
2022-10-05T07:25:16.427Z,11.70
2022-10-05T07:27:55.990Z,11.70
2022-10-05T07:30:24.334Z,11.80
2022-10-05T07:33:00.669Z,11.80
2022-10-05T07:36:00.331Z,11.90
2022-10-05T07:38:37.207Z,12.10
2022-10-05T07:41:08.118Z,12.10
2022-10-05T07:44:01.514Z,12.20
2022-10-05T07:46:49.334Z,12.10
2022-10-05T07:49:30.865Z,12.10
2022-10-05T07:52:04.044Z,12.30
2022-10-05T07:54:46.106Z,12.40
2022-10-05T07:57:25.795Z,12.60
2022-10-05T08:00:02.111Z,12.70
2022-10-05T08:02:36.354Z,13.00
2022-10-05T08:05:12.306Z,13.30
2022-10-05T08:07:41.394Z,13.70
2022-10-05T08:10:27.059Z,14.10
2022-10-05T08:13:11.780Z,14.20
2022-10-05T08:15:43.794Z,14.20
2022-10-05T08:18:21.072Z,14.20
2022-10-05T08:20:55.977Z,14.30
2022-10-05T08:23:26.904Z,14.20
2022-10-05T08:26:14.465Z,14.10
2022-10-05T08:28:50.832Z,14.10
2022-10-05T08:31:24.838Z,14.00
2022-10-05T08:34:00.862Z,13.90
2022-10-05T08:36:54.066Z,13.90
2022-10-05T08:39:24.173Z,14.00
2022-10-05T08:42:45.610Z,13.80
2022-10-05T08:45:55.619Z,13.80
2022-10-05T08:48:59.770Z,13.60
2022-10-05T08:51:50.638Z,13.70
2022-10-05T08:54:57.023Z,13.50
2022-10-05T08:58:13.747Z,13.60
2022-10-05T09:00:56.228Z,13.50
2022-10-05T09:04:01.690Z,13.30
2022-10-05T09:07:18.359Z,13.40
2022-10-05T09:10:40.971Z,13.40
2022-10-05T09:13:45.861Z,13.60
2022-10-05T09:16:54.111Z,13.40
2022-10-05T09:19:53.196Z,13.40
2022-10-05T09:22:59.877Z,13.50
2022-10-05T09:25:44.318Z,13.50
2022-10-05T09:28:25.739Z,13.60
2022-10-05T09:31:12.604Z,13.70
2022-10-05T09:34:19.770Z,13.80
2022-10-05T09:37:29.762Z,13.90
2022-10-05T09:40:45.237Z,14.10
2022-10-05T09:43:41.437Z,14.30
2022-10-05T09:46:41.266Z,14.60
2022-10-05T09:49:46.148Z,14.80
2022-10-05T09:52:43.322Z,15.10
2022-10-05T09:55:59.699Z,14.90
2022-10-05T09:59:07.641Z,15.20
2022-10-05T10:02:09.711Z,15.30
2022-10-05T10:05:20.068Z,15.30
2022-10-05T10:08:12.759Z,15.50
2022-10-05T10:11:10.169Z,15.40
2022-10-05T10:14:03.887Z,15.70
2022-10-05T10:16:43.770Z,15.90
2022-10-05T10:19:37.276Z,15.90
2022-10-05T10:22:55.469Z,16.00
2022-10-05T10:26:09.426Z,16.10
2022-10-05T10:29:09.461Z,16.20
2022-10-05T10:32:02.871Z,16.30
2022-10-05T10:35:06.705Z,16.50
2022-10-05T10:38:16.598Z,16.50
2022-10-05T10:41:19.026Z,16.50
2022-10-05T10:44:47.996Z,16.60
2022-10-05T10:47:47.874Z,16.90
2022-10-05T10:51:05.217Z,17.00
2022-10-05T10:54:27.719Z,17.00
2022-10-05T10:57:05.921Z,17.00
2022-10-05T11:00:22.272Z,16.90
2022-10-05T11:03:27.532Z,17.10
2022-10-05T11:06:19.993Z,17.20
2022-10-05T11:09:13.554Z,17.40
2022-10-05T11:12:30.879Z,17.50
2022-10-05T11:15:56.062Z,17.70
2022-10-05T11:18:42.422Z,17.60
2022-10-05T11:21:30.267Z,17.30
2022-10-05T11:24:50.755Z,17.30
2022-10-05T11:27:48.444Z,17.40
2022-10-05T11:31:01.431Z,17.50
2022-10-05T11:34:44.804Z,17.50
2022-10-05T11:37:46.113Z,17.80
2022-10-05T11:40:58.031Z,17.60
2022-10-05T11:44:30.796Z,17.80
2022-10-05T11:47:04.608Z,17.90
2022-10-05T11:49:44.499Z,17.90
2022-10-05T11:52:19.752Z,17.90
2022-10-05T11:55:14.809Z,17.70
2022-10-05T11:57:52.052Z,17.70
2022-10-05T12:00:23.015Z,17.60
2022-10-05T12:03:19.707Z,17.40
2022-10-05T12:06:05.607Z,17.60
2022-10-05T12:08:48.274Z,17.60
2022-10-05T12:11:37.991Z,17.70
2022-10-05T12:14:15.208Z,17.90
2022-10-05T12:16:51.014Z,18.10
2022-10-05T12:19:27.172Z,18.00
2022-10-05T12:22:04.115Z,18.00
2022-10-05T12:25:04.695Z,18.20
2022-10-05T12:27:40.436Z,18.20
2022-10-05T12:30:25.482Z,18.40
2022-10-05T12:33:03.483Z,18.40
2022-10-05T12:35:54.255Z,18.50
2022-10-05T12:38:29.346Z,18.80
2022-10-05T12:41:09.298Z,19.00
2022-10-05T12:43:50.846Z,18.90
2022-10-05T12:46:30.504Z,18.90
2022-10-05T12:49:25.238Z,19.00
2022-10-05T12:51:58.738Z,18.90
2022-10-05T12:54:41.489Z,18.70
2022-10-05T12:57:22.384Z,18.70
2022-10-05T12:59:57.189Z,18.60
2022-10-05T13:02:35.413Z,18.70
2022-10-05T13:05:21.447Z,18.80
2022-10-05T13:08:17.776Z,18.70
2022-10-05T13:10:50.533Z,18.90
2022-10-05T13:13:38.680Z,18.90
2022-10-05T13:16:18.558Z,18.80
2022-10-05T13:19:00.188Z,18.90
2022-10-05T13:21:53.652Z,18.80
2022-10-05T13:24:27.590Z,18.80
2022-10-05T13:27:05.387Z,18.60
2022-10-05T13:29:40.549Z,18.70
2022-10-05T13:32:17.173Z,18.60
2022-10-05T13:34:52.414Z,18.50
2022-10-05T13:37:32.698Z,18.50
2022-10-05T13:40:16.213Z,18.40
2022-10-05T13:42:53.713Z,18.40
2022-10-05T13:45:29.786Z,18.50
2022-10-05T13:48:19.665Z,18.50
2022-10-05T13:50:59.199Z,18.60
2022-10-05T13:53:35.157Z,18.70
2022-10-05T13:56:14.292Z,18.70
2022-10-05T13:58:51.153Z,18.60
2022-10-05T14:01:32.222Z,18.70
2022-10-05T14:04:15.931Z,18.70
2022-10-05T14:06:44.608Z,18.80
2022-10-05T14:09:28.303Z,18.80
2022-10-05T14:12:14.158Z,18.90
2022-10-05T14:14:50.458Z,18.90
2022-10-05T14:17:37.177Z,18.80
2022-10-05T14:20:20.928Z,18.70
2022-10-05T14:22:55.728Z,18.80
2022-10-05T14:25:24.183Z,18.80
2022-10-05T14:28:00.666Z,18.60
2022-10-05T14:30:31.328Z,18.70
2022-10-05T14:33:15.323Z,18.80
2022-10-05T14:35:51.428Z,18.80
2022-10-05T14:38:27.832Z,18.80
2022-10-05T14:41:17.289Z,18.80
2022-10-05T14:43:56.080Z,18.90
2022-10-05T14:46:29.710Z,19.00
2022-10-05T14:49:18.227Z,19.10
2022-10-05T14:51:46.599Z,19.10
2022-10-05T14:54:30.601Z,19.00
2022-10-05T14:57:18.900Z,19.10
2022-10-05T15:00:11.646Z,19.10
2022-10-05T15:03:15.815Z,19.20
2022-10-05T15:05:50.297Z,19.20
2022-10-05T15:08:45.056Z,19.20
2022-10-05T15:11:24.700Z,19.20
2022-10-05T15:13:53.810Z,19.20
2022-10-05T15:16:28.761Z,19.20
2022-10-05T15:19:05.343Z,19.20
2022-10-05T15:21:45.025Z,19.10
2022-10-05T15:24:20.103Z,19.10
2022-10-05T15:26:51.989Z,19.00
2022-10-05T15:29:52.199Z,19.00
2022-10-05T15:32:37.998Z,18.90
2022-10-05T15:35:36.676Z,18.90
2022-10-05T15:38:20.941Z,18.60
2022-10-05T15:40:59.450Z,18.40
2022-10-05T15:43:45.573Z,18.30
2022-10-05T15:46:18.935Z,17.90
2022-10-05T15:48:57.607Z,17.90
2022-10-05T15:51:50.718Z,17.90
2022-10-05T15:54:42.738Z,17.70
2022-10-05T15:57:22.658Z,17.70
2022-10-05T16:00:04.118Z,17.60
2022-10-05T16:02:42.487Z,17.60
2022-10-05T16:05:45.578Z,17.60
2022-10-05T16:08:54.094Z,17.60
2022-10-05T16:11:42.223Z,17.60
2022-10-05T16:14:28.252Z,17.40
2022-10-05T16:17:13.585Z,17.40
2022-10-05T16:19:50.922Z,17.20
2022-10-05T16:22:26.890Z,17.10
2022-10-05T16:25:16.153Z,17.00
2022-10-05T16:28:12.840Z,17.10
2022-10-05T16:30:59.109Z,17.20
2022-10-05T16:33:46.593Z,17.10
2022-10-05T16:36:26.883Z,17.30
2022-10-05T16:39:01.739Z,17.10
2022-10-05T16:41:39.344Z,17.10
2022-10-05T16:44:20.509Z,17.10
2022-10-05T16:46:53.939Z,17.00
2022-10-05T16:49:36.835Z,17.00
2022-10-05T16:52:07.007Z,16.90
2022-10-05T16:54:45.465Z,16.90
2022-10-05T16:57:23.297Z,16.90
2022-10-05T17:00:20.650Z,16.90
2022-10-05T17:03:10.211Z,16.70
2022-10-05T17:06:05.974Z,16.60
2022-10-05T17:09:04.373Z,16.60
2022-10-05T17:11:46.509Z,16.60
2022-10-05T17:14:32.150Z,16.60
2022-10-05T17:17:39.509Z,16.60
2022-10-05T17:20:32.748Z,16.50
2022-10-05T17:23:18.381Z,16.50
2022-10-05T17:25:54.371Z,16.40
2022-10-05T17:28:25.917Z,16.30
2022-10-05T17:31:17.257Z,16.30
2022-10-05T17:34:27.235Z,16.30
2022-10-05T17:37:00.015Z,16.20
2022-10-05T17:39:52.486Z,16.10
2022-10-05T17:42:49.169Z,16.00
2022-10-05T17:45:57.972Z,16.00
2022-10-05T17:49:07.602Z,15.90
2022-10-05T17:52:20.484Z,15.90
2022-10-05T17:55:28.075Z,15.80
2022-10-05T17:58:02.604Z,15.80
2022-10-05T18:00:56.592Z,15.80
2022-10-05T18:03:41.648Z,15.80
2022-10-05T18:06:38.775Z,15.60
2022-10-05T18:09:54.585Z,15.50
2022-10-05T18:12:46.977Z,15.60
2022-10-05T18:15:45.824Z,15.50
2022-10-05T18:18:59.052Z,15.60
2022-10-05T18:21:37.974Z,15.60
2022-10-05T18:24:46.323Z,15.50
2022-10-05T18:27:53.488Z,15.50
2022-10-05T18:30:24.471Z,15.40
2022-10-05T18:33:18.480Z,15.30
2022-10-05T18:35:59.995Z,15.40
2022-10-05T18:38:43.257Z,15.20
2022-10-05T18:41:23.744Z,15.20
2022-10-05T18:44:08.626Z,15.20
2022-10-05T18:46:48.256Z,15.20
2022-10-05T18:49:36.218Z,15.10
2022-10-05T18:52:13.359Z,15.10
2022-10-05T18:54:59.451Z,15.10
2022-10-05T18:58:10.360Z,15.10
2022-10-05T19:01:10.853Z,15.10
2022-10-05T19:03:56.531Z,15.10
2022-10-05T19:06:29.881Z,15.10
2022-10-05T19:09:10.182Z,15.20
2022-10-05T19:11:46.352Z,15.10
2022-10-05T19:14:26.535Z,15.10
2022-10-05T19:17:12.228Z,15.10
2022-10-05T19:20:02.499Z,15.10
2022-10-05T19:22:49.824Z,15.00
2022-10-05T19:25:39.259Z,15.00
2022-10-05T19:28:27.916Z,14.90
2022-10-05T19:31:21.540Z,14.90
2022-10-05T19:34:19.283Z,14.90
2022-10-05T19:37:00.352Z,14.90
2022-10-05T19:39:39.702Z,14.90
2022-10-05T19:42:52.622Z,14.90
2022-10-05T19:45:28.009Z,14.90
2022-10-05T19:48:14.439Z,14.80
2022-10-05T19:50:57.495Z,14.80
2022-10-05T19:53:29.621Z,14.80
2022-10-05T19:56:13.547Z,14.80
2022-10-05T19:58:41.853Z,14.80
2022-10-05T20:01:12.142Z,14.80
2022-10-05T20:03:41.444Z,14.70
2022-10-05T20:06:12.144Z,14.70
2022-10-05T20:08:43.723Z,14.70
2022-10-05T20:11:15.632Z,14.70
2022-10-05T20:13:46.765Z,14.70
2022-10-05T20:16:47.910Z,14.70
2022-10-05T20:19:56.140Z,14.70
2022-10-05T20:22:27.865Z,14.70
2022-10-05T20:25:01.117Z,14.60
2022-10-05T20:27:46.787Z,14.60
2022-10-05T20:30:18.642Z,14.60
2022-10-05T20:32:50.671Z,14.50
2022-10-05T20:35:22.056Z,14.50
2022-10-05T20:37:51.359Z,14.50
2022-10-05T20:40:20.238Z,14.50
2022-10-05T20:42:48.876Z,14.50
2022-10-05T20:45:20.384Z,14.50
2022-10-05T20:47:50.844Z,14.40
2022-10-05T20:50:21.000Z,14.40
2022-10-05T20:52:49.693Z,14.30
2022-10-05T20:55:20.634Z,14.10
2022-10-05T20:57:51.194Z,14.20
2022-10-05T21:00:19.260Z,14.30
2022-10-05T21:02:47.461Z,14.20
2022-10-05T21:05:18.028Z,14.30
2022-10-05T21:07:46.675Z,14.30
2022-10-05T21:10:14.958Z,14.30
2022-10-05T21:12:42.972Z,14.20
2022-10-05T21:15:12.481Z,14.20
2022-10-05T21:17:40.439Z,14.20
2022-10-05T21:20:11.546Z,14.20
2022-10-05T21:22:41.110Z,14.30
2022-10-05T21:25:10.075Z,14.30
2022-10-05T21:27:41.496Z,14.20
2022-10-05T21:30:11.452Z,14.20
2022-10-05T21:32:44.246Z,14.20
2022-10-05T21:35:13.321Z,14.20
2022-10-05T21:37:47.164Z,14.30
2022-10-05T21:40:17.129Z,14.20
2022-10-05T21:42:45.134Z,14.20
2022-10-05T21:45:18.038Z,14.20
2022-10-05T21:47:46.017Z,14.20
2022-10-05T21:50:14.007Z,14.20
2022-10-05T21:52:43.667Z,14.20
2022-10-05T21:55:12.301Z,14.20
2022-10-05T21:57:41.217Z,14.20
2022-10-05T22:00:11.552Z,14.20
2022-10-05T22:02:39.541Z,14.00
2022-10-05T22:05:09.693Z,14.10
2022-10-05T22:07:39.057Z,14.00
2022-10-05T22:10:10.122Z,14.00
2022-10-05T22:12:38.177Z,13.90
2022-10-05T22:15:07.754Z,13.90
2022-10-05T22:17:36.554Z,13.90
2022-10-05T22:20:05.847Z,13.90
2022-10-05T22:22:34.404Z,14.00
2022-10-05T22:25:02.828Z,14.00
2022-10-05T22:27:33.418Z,14.00
2022-10-05T22:30:01.663Z,14.00
2022-10-05T22:32:29.675Z,14.00
2022-10-05T22:34:57.779Z,13.90
2022-10-05T22:37:31.046Z,13.90
2022-10-05T22:39:59.199Z,13.80
2022-10-05T22:42:27.237Z,13.70
2022-10-05T22:44:59.063Z,13.70
2022-10-05T22:47:27.138Z,13.70
2022-10-05T22:49:55.344Z,13.80
2022-10-05T22:52:27.800Z,13.70
2022-10-05T22:54:56.591Z,13.70
2022-10-05T22:57:24.654Z,13.80
2022-10-05T22:59:52.607Z,13.60
2022-10-05T23:02:22.093Z,13.60
2022-10-05T23:04:50.634Z,13.60
2022-10-05T23:07:21.930Z,13.50
2022-10-05T23:09:50.800Z,13.60
2022-10-05T23:12:18.779Z,13.60
2022-10-05T23:14:46.799Z,13.60
2022-10-05T23:17:14.879Z,13.60
2022-10-05T23:19:44.237Z,13.70
2022-10-05T23:22:12.326Z,13.70
2022-10-05T23:24:40.328Z,13.50
2022-10-05T23:27:08.496Z,13.60
2022-10-05T23:29:36.481Z,13.60
2022-10-05T23:32:05.195Z,13.60
2022-10-05T23:34:33.277Z,13.60
2022-10-05T23:37:03.006Z,13.60
2022-10-05T23:39:31.366Z,13.60
2022-10-05T23:41:59.980Z,13.60
2022-10-05T23:44:28.007Z,13.60
2022-10-05T23:46:56.041Z,13.50
2022-10-05T23:49:24.739Z,13.50
2022-10-05T23:51:55.184Z,13.30
2022-10-05T23:54:24.574Z,13.40
2022-10-05T23:56:52.715Z,13.40
2022-10-05T23:59:21.326Z,13.40
